Terminal Aerodrome Forecast
Issued by NWS La Crosse, WI

Home | Current Version | Previous Version | Text Only | Print | Product List | Glossary On
Versions: 1 2 3 4 5 6 7 8 9 10 11 12 13
000
FTUS43 KARX 051725
TAFLSE
TAF
KLSE 051725Z 0518/0618 VRB05KT P6SM FEW120
     FM060100 18006KT P6SM FEW220
     FM061500 20012KT P6SM SKC=

USA.gov is the U.S. government's official web portal to all federal, state and local government web resources and services.